Bradford, Texas
Current Conditions -  °F | °C
As of 10:15 PM on Tuesday 25 Nov 2014 (Local Time) from KPSN Reporting Station
Clear Clear  
Wind Chill: 44°   Ceiling: Unl
Heat Index: 44°   Visibility: 10mi
Dew Point: 35°   Wind: 0mph
Humidity: 70%   Direction: NA
Pressure: 30.2"   Gusts: NA
Location:  31.935°N, 95.7672°W
Report Text: KPSN 260415Z AUTO 00000KT 10SM CLR 06/01 A3020 RMK AO2 T00650014
Loading
Personal Weather Stations






























Interactive Weather Map New forecast layout! Learn more

10-Day Weather Forecast

Advertisements
Track Severe Weather on mobile